sensor_id;sensor_type;location;lat;lon;timestamp;temperature;humidity
16273;DHT22;8244;50.044;9.006;2024-01-11T00:02:27;-5.80;99.90
16273;DHT22;8244;50.044;9.006;2024-01-11T00:07:30;-5.90;99.90
16273;DHT22;8244;50.044;9.006;2024-01-11T00:12:32;-5.90;99.90
16273;DHT22;8244;50.044;9.006;2024-01-11T00:17:33;-6.00;99.90
16273;DHT22;8244;50.044;9.006;2024-01-11T00:22:36;-6.00;99.90
16273;DHT22;8244;50.044;9.006;2024-01-11T00:27:38;-6.00;99.90
16273;DHT22;8244;50.044;9.006;2024-01-11T00:32:40;-6.00;99.90
16273;DHT22;8244;50.044;9.006;2024-01-11T00:37:43;-6.10;99.90
16273;DHT22;8244;50.044;9.006;2024-01-11T00:42:44;-6.10;99.90
16273;DHT22;8244;50.044;9.006;2024-01-11T00:47:46;-6.10;99.90
16273;DHT22;8244;50.044;9.006;2024-01-11T00:52:49;-6.10;99.90
16273;DHT22;8244;50.044;9.006;2024-01-11T00:57:51;-6.10;99.90
16273;DHT22;8244;50.044;9.006;2024-01-11T01:02:53;-6.10;99.90
16273;DHT22;8244;50.044;9.006;2024-01-11T01:07:56;-6.20;99.90
16273;DHT22;8244;50.044;9.006;2024-01-11T01:12:58;-6.20;99.90
16273;DHT22;8244;50.044;9.006;2024-01-11T01:18:00;-6.20;99.90
16273;DHT22;8244;50.044;9.006;2024-01-11T01:23:03;-6.20;99.90
16273;DHT22;8244;50.044;9.006;2024-01-11T01:28:05;-6.20;99.90
16273;DHT22;8244;50.044;9.006;2024-01-11T01:33:07;-6.10;99.90
16273;DHT22;8244;50.044;9.006;2024-01-11T01:38:10;-6.20;99.90
16273;DHT22;8244;50.044;9.006;2024-01-11T01:43:12;-6.20;99.90
16273;DHT22;8244;50.044;9.006;2024-01-11T01:48:14;-6.30;99.90
16273;DHT22;8244;50.044;9.006;2024-01-11T01:53:17;-6.30;99.90
16273;DHT22;8244;50.044;9.006;2024-01-11T01:58:20;-6.40;99.90
16273;DHT22;8244;50.044;9.006;2024-01-11T02:03:24;-6.40;99.90
16273;DHT22;8244;50.044;9.006;2024-01-11T02:08:29;-6.50;99.90
16273;DHT22;8244;50.044;9.006;2024-01-11T02:13:32;-6.50;99.90
16273;DHT22;8244;50.044;9.006;2024-01-11T02:18:34;-6.50;99.90
16273;DHT22;8244;50.044;9.006;2024-01-11T02:23:42;-6.50;99.90
16273;DHT22;8244;50.044;9.006;2024-01-11T02:28:47;-6.50;99.90
16273;DHT22;8244;50.044;9.006;2024-01-11T02:33:49;-6.50;99.90
16273;DHT22;8244;50.044;9.006;2024-01-11T02:38:51;-6.60;99.90
16273;DHT22;8244;50.044;9.006;2024-01-11T02:43:56;-6.60;99.90
16273;DHT22;8244;50.044;9.006;2024-01-11T02:48:58;-6.70;99.90
16273;DHT22;8244;50.044;9.006;2024-01-11T02:53:59;-6.80;99.90
16273;DHT22;8244;50.044;9.006;2024-01-11T02:59:03;-6.80;99.90
16273;DHT22;8244;50.044;9.006;2024-01-11T03:04:05;-6.80;99.90
16273;DHT22;8244;50.044;9.006;2024-01-11T03:09:07;-6.90;99.90
16273;DHT22;8244;50.044;9.006;2024-01-11T03:14:10;-6.90;99.90
16273;DHT22;8244;50.044;9.006;2024-01-11T03:19:11;-6.90;99.90
16273;DHT22;8244;50.044;9.006;2024-01-11T03:24:13;-7.00;99.90
16273;DHT22;8244;50.044;9.006;2024-01-11T03:29:16;-6.90;99.90
16273;DHT22;8244;50.044;9.006;2024-01-11T03:34:18;-7.00;99.90
16273;DHT22;8244;50.044;9.006;2024-01-11T03:39:19;-7.00;99.90
16273;DHT22;8244;50.044;9.006;2024-01-11T03:44:22;-7.10;99.90
16273;DHT22;8244;50.044;9.006;2024-01-11T03:49:24;-7.10;99.90
16273;DHT22;8244;50.044;9.006;2024-01-11T03:54:26;-7.10;99.90
16273;DHT22;8244;50.044;9.006;2024-01-11T03:59:29;-7.00;99.90
16273;DHT22;8244;50.044;9.006;2024-01-11T04:04:30;-7.00;99.90
16273;DHT22;8244;50.044;9.006;2024-01-11T04:09:32;-7.10;99.90
16273;DHT22;8244;50.044;9.006;2024-01-11T04:14:37;-7.10;99.90
16273;DHT22;8244;50.044;9.006;2024-01-11T04:19:39;-7.10;99.90
16273;DHT22;8244;50.044;9.006;2024-01-11T04:24:43;-7.10;99.90
16273;DHT22;8244;50.044;9.006;2024-01-11T04:29:46;-7.10;99.90
16273;DHT22;8244;50.044;9.006;2024-01-11T04:34:48;-7.20;99.90
16273;DHT22;8244;50.044;9.006;2024-01-11T04:39:50;-7.20;99.90
16273;DHT22;8244;50.044;9.006;2024-01-11T04:44:53;-7.20;99.90
16273;DHT22;8244;50.044;9.006;2024-01-11T04:49:54;-7.20;99.90
16273;DHT22;8244;50.044;9.006;2024-01-11T04:54:56;-7.20;99.90
16273;DHT22;8244;50.044;9.006;2024-01-11T04:59:59;-7.20;99.90
16273;DHT22;8244;50.044;9.006;2024-01-11T05:05:01;-7.20;99.90
16273;DHT22;8244;50.044;9.006;2024-01-11T05:10:03;-7.20;99.90
16273;DHT22;8244;50.044;9.006;2024-01-11T05:15:07;-7.20;99.90
16273;DHT22;8244;50.044;9.006;2024-01-11T05:20:09;-7.30;99.90
16273;DHT22;8244;50.044;9.006;2024-01-11T05:25:12;-7.30;99.90
16273;DHT22;8244;50.044;9.006;2024-01-11T05:30:16;-7.30;99.90
16273;DHT22;8244;50.044;9.006;2024-01-11T05:35:17;-7.30;99.90
16273;DHT22;8244;50.044;9.006;2024-01-11T05:40:19;-7.30;99.90
16273;DHT22;8244;50.044;9.006;2024-01-11T05:45:22;-7.40;99.90
16273;DHT22;8244;50.044;9.006;2024-01-11T05:50:24;-7.40;99.90
16273;DHT22;8244;50.044;9.006;2024-01-11T05:55:25;-7.40;99.90
16273;DHT22;8244;50.044;9.006;2024-01-11T06:00:28;-7.40;99.90
16273;DHT22;8244;50.044;9.006;2024-01-11T06:05:30;-7.40;99.90
16273;DHT22;8244;50.044;9.006;2024-01-11T06:10:31;-7.30;99.90
16273;DHT22;8244;50.044;9.006;2024-01-11T06:15:34;-7.30;99.90
16273;DHT22;8244;50.044;9.006;2024-01-11T06:20:36;-7.30;99.90
16273;DHT22;8244;50.044;9.006;2024-01-11T06:25:38;-7.30;99.90
16273;DHT22;8244;50.044;9.006;2024-01-11T06:30:41;-7.30;99.90
16273;DHT22;8244;50.044;9.006;2024-01-11T06:35:43;-7.30;99.90
16273;DHT22;8244;50.044;9.006;2024-01-11T06:40:45;-7.40;99.90
16273;DHT22;8244;50.044;9.006;2024-01-11T06:45:49;-7.40;99.90
16273;DHT22;8244;50.044;9.006;2024-01-11T06:50:51;-7.30;99.90
16273;DHT22;8244;50.044;9.006;2024-01-11T06:55:52;-7.30;99.90
16273;DHT22;8244;50.044;9.006;2024-01-11T07:00:55;-7.30;99.90
16273;DHT22;8244;50.044;9.006;2024-01-11T07:05:57;-7.30;99.90
16273;DHT22;8244;50.044;9.006;2024-01-11T07:11:00;-7.30;99.90
16273;DHT22;8244;50.044;9.006;2024-01-11T07:16:04;-7.30;99.90
16273;DHT22;8244;50.044;9.006;2024-01-11T07:21:06;-7.20;99.90
16273;DHT22;8244;50.044;9.006;2024-01-11T07:26:08;-7.20;99.90
16273;DHT22;8244;50.044;9.006;2024-01-11T07:31:11;-7.30;99.90
16273;DHT22;8244;50.044;9.006;2024-01-11T07:36:13;-7.30;99.90
16273;DHT22;8244;50.044;9.006;2024-01-11T07:41:15;-7.20;99.90
16273;DHT22;8244;50.044;9.006;2024-01-11T07:46:18;-7.20;99.90
16273;DHT22;8244;50.044;9.006;2024-01-11T07:51:20;-7.30;99.90
16273;DHT22;8244;50.044;9.006;2024-01-11T07:56:21;-7.30;99.90
16273;DHT22;8244;50.044;9.006;2024-01-11T08:01:25;-7.30;99.90
16273;DHT22;8244;50.044;9.006;2024-01-11T08:06:26;-7.30;99.90
16273;DHT22;8244;50.044;9.006;2024-01-11T08:11:28;-7.20;99.90
16273;DHT22;8244;50.044;9.006;2024-01-11T08:16:31;-6.90;99.90
16273;DHT22;8244;50.044;9.006;2024-01-11T08:21:33;-6.80;99.90
16273;DHT22;8244;50.044;9.006;2024-01-11T08:26:34;-6.70;99.90
16273;DHT22;8244;50.044;9.006;2024-01-11T08:31:37;-6.70;99.90
16273;DHT22;8244;50.044;9.006;2024-01-11T08:36:39;-6.70;99.90
16273;DHT22;8244;50.044;9.006;2024-01-11T08:41:41;-6.60;99.90
16273;DHT22;8244;50.044;9.006;2024-01-11T08:46:44;-6.50;99.90
16273;DHT22;8244;50.044;9.006;2024-01-11T08:51:45;-6.40;99.90
16273;DHT22;8244;50.044;9.006;2024-01-11T08:56:50;-6.30;99.90
16273;DHT22;8244;50.044;9.006;2024-01-11T09:01:54;-6.20;99.90
16273;DHT22;8244;50.044;9.006;2024-01-11T09:06:56;-6.20;99.90
16273;DHT22;8244;50.044;9.006;2024-01-11T09:11:57;-6.10;99.90
16273;DHT22;8244;50.044;9.006;2024-01-11T09:17:00;-6.00;99.90
16273;DHT22;8244;50.044;9.006;2024-01-11T09:22:02;-5.90;99.90
16273;DHT22;8244;50.044;9.006;2024-01-11T09:27:04;-5.80;99.90
16273;DHT22;8244;50.044;9.006;2024-01-11T09:32:07;-5.80;99.90
16273;DHT22;8244;50.044;9.006;2024-01-11T09:37:09;-5.70;99.90
16273;DHT22;8244;50.044;9.006;2024-01-11T09:42:10;-5.60;99.90
16273;DHT22;8244;50.044;9.006;2024-01-11T09:47:15;-5.50;99.90
16273;DHT22;8244;50.044;9.006;2024-01-11T09:52:20;-5.40;99.90
16273;DHT22;8244;50.044;9.006;2024-01-11T09:57:24;-5.30;99.90
16273;DHT22;8244;50.044;9.006;2024-01-11T10:02:29;-5.20;99.90
16273;DHT22;8244;50.044;9.006;2024-01-11T10:07:32;-5.20;99.90
16273;DHT22;8244;50.044;9.006;2024-01-11T10:12:35;-5.10;99.90
16273;DHT22;8244;50.044;9.006;2024-01-11T10:17:41;-4.90;99.90
16273;DHT22;8244;50.044;9.006;2024-01-11T10:22:43;-4.70;99.90
16273;DHT22;8244;50.044;9.006;2024-01-11T10:27:47;-4.50;99.90
16273;DHT22;8244;50.044;9.006;2024-01-11T10:32:50;-4.30;99.90
16273;DHT22;8244;50.044;9.006;2024-01-11T10:37:52;-4.00;99.90
16273;DHT22;8244;50.044;9.006;2024-01-11T10:42:58;-3.60;99.90
16273;DHT22;8244;50.044;9.006;2024-01-11T10:48:06;-3.30;99.90
16273;DHT22;8244;50.044;9.006;2024-01-11T10:53:21;-2.90;99.90
16273;DHT22;8244;50.044;9.006;2024-01-11T10:58:26;-2.70;99.90
16273;DHT22;8244;50.044;9.006;2024-01-11T11:03:30;-2.30;99.90
16273;DHT22;8244;50.044;9.006;2024-01-11T11:08:33;-2.10;99.90
16273;DHT22;8244;50.044;9.006;2024-01-11T11:13:37;-1.80;99.90
16273;DHT22;8244;50.044;9.006;2024-01-11T11:18:41;-1.50;99.90
16273;DHT22;8244;50.044;9.006;2024-01-11T11:23:43;-1.30;99.90
16273;DHT22;8244;50.044;9.006;2024-01-11T11:28:47;-1.10;99.90
16273;DHT22;8244;50.044;9.006;2024-01-11T11:33:52;-0.90;99.90
16273;DHT22;8244;50.044;9.006;2024-01-11T11:38:54;-0.80;99.90
16273;DHT22;8244;50.044;9.006;2024-01-11T11:44:04;-0.60;99.90
16273;DHT22;8244;50.044;9.006;2024-01-11T11:49:07;-0.40;99.90
16273;DHT22;8244;50.044;9.006;2024-01-11T11:54:10;-0.30;99.90
16273;DHT22;8244;50.044;9.006;2024-01-11T11:59:16;-0.10;99.90
16273;DHT22;8244;50.044;9.006;2024-01-11T12:04:19;0.00;99.90
16273;DHT22;8244;50.044;9.006;2024-01-11T12:09:21;0.10;99.90
16273;DHT22;8244;50.044;9.006;2024-01-11T12:14:24;0.30;99.90
16273;DHT22;8244;50.044;9.006;2024-01-11T12:19:29;0.40;99.90
16273;DHT22;8244;50.044;9.006;2024-01-11T12:24:31;0.50;99.90
16273;DHT22;8244;50.044;9.006;2024-01-11T12:29:33;0.50;99.90
16273;DHT22;8244;50.044;9.006;2024-01-11T12:34:36;0.50;99.90
16273;DHT22;8244;50.044;9.006;2024-01-11T12:39:38;0.50;99.90
16273;DHT22;8244;50.044;9.006;2024-01-11T12:44:40;0.50;99.90
16273;DHT22;8244;50.044;9.006;2024-01-11T12:49:45;0.40;99.90
16273;DHT22;8244;50.044;9.006;2024-01-11T12:54:47;0.40;99.90
16273;DHT22;8244;50.044;9.006;2024-01-11T12:59:48;0.30;99.90
16273;DHT22;8244;50.044;9.006;2024-01-11T13:04:51;0.20;99.90
16273;DHT22;8244;50.044;9.006;2024-01-11T13:09:53;0.10;99.90
16273;DHT22;8244;50.044;9.006;2024-01-11T13:14:55;0.10;99.90
16273;DHT22;8244;50.044;9.006;2024-01-11T13:19:58;0.00;99.90
16273;DHT22;8244;50.044;9.006;2024-01-11T13:24:59;0.00;99.90
16273;DHT22;8244;50.044;9.006;2024-01-11T13:30:01;-0.10;99.90
16273;DHT22;8244;50.044;9.006;2024-01-11T13:35:05;-0.10;99.90
16273;DHT22;8244;50.044;9.006;2024-01-11T13:40:08;-0.10;99.90
16273;DHT22;8244;50.044;9.006;2024-01-11T13:45:10;-0.20;99.90
16273;DHT22;8244;50.044;9.006;2024-01-11T13:50:14;-0.10;99.90
16273;DHT22;8244;50.044;9.006;2024-01-11T13:55:16;-0.20;99.90
16273;DHT22;8244;50.044;9.006;2024-01-11T14:00:19;-0.20;99.90
16273;DHT22;8244;50.044;9.006;2024-01-11T14:05:22;-0.20;99.90
16273;DHT22;8244;50.044;9.006;2024-01-11T14:10:23;-0.20;99.90
16273;DHT22;8244;50.044;9.006;2024-01-11T14:15:26;-0.20;99.90
16273;DHT22;8244;50.044;9.006;2024-01-11T14:20:29;-0.20;99.90
16273;DHT22;8244;50.044;9.006;2024-01-11T14:25:32;-0.30;99.90
16273;DHT22;8244;50.044;9.006;2024-01-11T14:30:34;-0.30;99.90
16273;DHT22;8244;50.044;9.006;2024-01-11T14:35:37;-0.40;99.90
16273;DHT22;8244;50.044;9.006;2024-01-11T14:40:39;-0.40;99.90
16273;DHT22;8244;50.044;9.006;2024-01-11T14:45:41;-0.40;99.90
16273;DHT22;8244;50.044;9.006;2024-01-11T14:50:44;-0.50;99.90
16273;DHT22;8244;50.044;9.006;2024-01-11T14:55:46;-0.50;99.90
16273;DHT22;8244;50.044;9.006;2024-01-11T15:00:48;-0.60;99.90
16273;DHT22;8244;50.044;9.006;2024-01-11T15:05:52;-0.70;99.90
16273;DHT22;8244;50.044;9.006;2024-01-11T15:10:54;-0.80;99.90
16273;DHT22;8244;50.044;9.006;2024-01-11T15:15:55;-0.80;99.90
16273;DHT22;8244;50.044;9.006;2024-01-11T15:20:59;-0.90;99.90
16273;DHT22;8244;50.044;9.006;2024-01-11T15:26:00;-1.00;99.90
16273;DHT22;8244;50.044;9.006;2024-01-11T15:31:02;-1.00;99.90
16273;DHT22;8244;50.044;9.006;2024-01-11T15:36:06;-1.10;99.90
16273;DHT22;8244;50.044;9.006;2024-01-11T15:41:08;-1.20;99.90
16273;DHT22;8244;50.044;9.006;2024-01-11T15:46:10;-1.30;99.90
16273;DHT22;8244;50.044;9.006;2024-01-11T15:51:13;-1.40;99.90
16273;DHT22;8244;50.044;9.006;2024-01-11T15:56:14;-1.60;99.90
16273;DHT22;8244;50.044;9.006;2024-01-11T16:01:16;-1.70;99.90
16273;DHT22;8244;50.044;9.006;2024-01-11T16:06:19;-1.80;99.90
16273;DHT22;8244;50.044;9.006;2024-01-11T16:11:21;-1.90;99.90
16273;DHT22;8244;50.044;9.006;2024-01-11T16:16:23;-2.00;99.90
16273;DHT22;8244;50.044;9.006;2024-01-11T16:21:26;-2.10;99.90
16273;DHT22;8244;50.044;9.006;2024-01-11T16:26:29;-2.30;99.90
16273;DHT22;8244;50.044;9.006;2024-01-11T16:31:31;-2.40;99.90
16273;DHT22;8244;50.044;9.006;2024-01-11T16:36:37;-2.50;99.90
16273;DHT22;8244;50.044;9.006;2024-01-11T16:41:41;-2.50;99.90
16273;DHT22;8244;50.044;9.006;2024-01-11T16:46:42;-2.60;99.90
16273;DHT22;8244;50.044;9.006;2024-01-11T16:51:46;-2.70;99.90
16273;DHT22;8244;50.044;9.006;2024-01-11T16:56:48;-2.60;99.90
16273;DHT22;8244;50.044;9.006;2024-01-11T17:01:51;-2.60;99.90
16273;DHT22;8244;50.044;9.006;2024-01-11T17:06:54;-2.70;99.90
16273;DHT22;8244;50.044;9.006;2024-01-11T17:11:56;-2.80;99.90
16273;DHT22;8244;50.044;9.006;2024-01-11T17:16:58;-3.00;99.90
16273;DHT22;8244;50.044;9.006;2024-01-11T17:22:03;-3.10;99.90
16273;DHT22;8244;50.044;9.006;2024-01-11T17:27:05;-3.20;99.90
16273;DHT22;8244;50.044;9.006;2024-01-11T17:32:08;-3.20;99.90
16273;DHT22;8244;50.044;9.006;2024-01-11T17:37:11;-3.30;99.90
16273;DHT22;8244;50.044;9.006;2024-01-11T17:42:13;-3.30;99.90
16273;DHT22;8244;50.044;9.006;2024-01-11T17:47:14;-3.30;99.90
16273;DHT22;8244;50.044;9.006;2024-01-11T17:52:18;-3.50;99.90
16273;DHT22;8244;50.044;9.006;2024-01-11T17:57:19;-3.60;99.90
16273;DHT22;8244;50.044;9.006;2024-01-11T18:02:22;-3.60;99.90
16273;DHT22;8244;50.044;9.006;2024-01-11T18:07:25;-3.70;99.90
16273;DHT22;8244;50.044;9.006;2024-01-11T18:12:27;-3.80;99.90
16273;DHT22;8244;50.044;9.006;2024-01-11T18:17:28;-3.80;99.90
16273;DHT22;8244;50.044;9.006;2024-01-11T18:22:32;-3.90;99.90
16273;DHT22;8244;50.044;9.006;2024-01-11T18:27:33;-3.90;99.90
16273;DHT22;8244;50.044;9.006;2024-01-11T18:32:35;-3.90;99.90
16273;DHT22;8244;50.044;9.006;2024-01-11T18:37:38;-4.00;99.90
16273;DHT22;8244;50.044;9.006;2024-01-11T18:42:40;-4.00;99.90
16273;DHT22;8244;50.044;9.006;2024-01-11T18:47:42;-4.10;99.90
16273;DHT22;8244;50.044;9.006;2024-01-11T18:52:45;-4.20;99.90
16273;DHT22;8244;50.044;9.006;2024-01-11T18:57:47;-4.20;99.90
16273;DHT22;8244;50.044;9.006;2024-01-11T19:02:48;-4.30;99.90
16273;DHT22;8244;50.044;9.006;2024-01-11T19:07:52;-4.30;99.90
16273;DHT22;8244;50.044;9.006;2024-01-11T19:12:53;-4.40;99.90
16273;DHT22;8244;50.044;9.006;2024-01-11T19:17:56;-4.40;99.90
16273;DHT22;8244;50.044;9.006;2024-01-11T19:22:59;-4.50;99.90
16273;DHT22;8244;50.044;9.006;2024-01-11T19:28:00;-4.50;99.90
16273;DHT22;8244;50.044;9.006;2024-01-11T19:33:02;-4.50;99.90
16273;DHT22;8244;50.044;9.006;2024-01-11T19:38:07;-4.50;99.90
16273;DHT22;8244;50.044;9.006;2024-01-11T19:43:09;-4.50;99.90
16273;DHT22;8244;50.044;9.006;2024-01-11T19:48:10;-4.60;99.90
16273;DHT22;8244;50.044;9.006;2024-01-11T19:53:13;-4.60;99.90
16273;DHT22;8244;50.044;9.006;2024-01-11T19:58:16;-4.70;99.90
16273;DHT22;8244;50.044;9.006;2024-01-11T20:03:17;-4.70;99.90
16273;DHT22;8244;50.044;9.006;2024-01-11T20:08:20;-4.80;99.90
16273;DHT22;8244;50.044;9.006;2024-01-11T20:13:25;-4.70;99.90
16273;DHT22;8244;50.044;9.006;2024-01-11T20:18:28;-4.70;99.90
16273;DHT22;8244;50.044;9.006;2024-01-11T20:23:31;-4.70;99.90
16273;DHT22;8244;50.044;9.006;2024-01-11T20:28:33;-4.70;99.90
16273;DHT22;8244;50.044;9.006;2024-01-11T20:33:34;-4.70;99.90
16273;DHT22;8244;50.044;9.006;2024-01-11T20:38:37;-4.80;99.90
16273;DHT22;8244;50.044;9.006;2024-01-11T20:43:39;-4.80;99.90
16273;DHT22;8244;50.044;9.006;2024-01-11T20:48:41;-4.90;99.90
16273;DHT22;8244;50.044;9.006;2024-01-11T20:53:47;-5.00;99.90
16273;DHT22;8244;50.044;9.006;2024-01-11T20:58:49;-5.20;99.90
16273;DHT22;8244;50.044;9.006;2024-01-11T21:03:50;-5.20;99.90
16273;DHT22;8244;50.044;9.006;2024-01-11T21:08:58;-5.20;99.90
16273;DHT22;8244;50.044;9.006;2024-01-11T21:13:59;-5.20;99.90
16273;DHT22;8244;50.044;9.006;2024-01-11T21:19:02;-5.30;99.90
16273;DHT22;8244;50.044;9.006;2024-01-11T21:24:07;-5.30;99.90
16273;DHT22;8244;50.044;9.006;2024-01-11T21:29:09;-5.40;99.90
16273;DHT22;8244;50.044;9.006;2024-01-11T21:34:11;-5.40;99.90
16273;DHT22;8244;50.044;9.006;2024-01-11T21:39:14;-5.30;99.90
16273;DHT22;8244;50.044;9.006;2024-01-11T21:44:16;-5.30;99.90
16273;DHT22;8244;50.044;9.006;2024-01-11T21:49:18;-5.30;99.90
16273;DHT22;8244;50.044;9.006;2024-01-11T21:54:21;-5.30;99.90
16273;DHT22;8244;50.044;9.006;2024-01-11T21:59:23;-5.40;99.90
16273;DHT22;8244;50.044;9.006;2024-01-11T22:04:25;-5.40;99.90
16273;DHT22;8244;50.044;9.006;2024-01-11T22:09:28;-5.40;99.90
16273;DHT22;8244;50.044;9.006;2024-01-11T22:14:29;-5.40;99.90
16273;DHT22;8244;50.044;9.006;2024-01-11T22:19:31;-5.30;99.90
16273;DHT22;8244;50.044;9.006;2024-01-11T22:24:34;-5.30;99.90
16273;DHT22;8244;50.044;9.006;2024-01-11T22:29:36;-5.30;99.90
16273;DHT22;8244;50.044;9.006;2024-01-11T22:34:37;-5.20;99.90
16273;DHT22;8244;50.044;9.006;2024-01-11T22:39:40;-5.10;99.90
16273;DHT22;8244;50.044;9.006;2024-01-11T22:44:43;-5.00;99.90
16273;DHT22;8244;50.044;9.006;2024-01-11T22:49:45;-4.80;99.90
16273;DHT22;8244;50.044;9.006;2024-01-11T22:54:48;-4.80;99.90
16273;DHT22;8244;50.044;9.006;2024-01-11T22:59:49;-4.70;99.90
16273;DHT22;8244;50.044;9.006;2024-01-11T23:04:51;-4.60;99.90
16273;DHT22;8244;50.044;9.006;2024-01-11T23:09:54;-4.50;99.90
16273;DHT22;8244;50.044;9.006;2024-01-11T23:14:56;-4.40;99.90
16273;DHT22;8244;50.044;9.006;2024-01-11T23:19:57;-4.30;99.90
16273;DHT22;8244;50.044;9.006;2024-01-11T23:25:00;-4.20;99.90
16273;DHT22;8244;50.044;9.006;2024-01-11T23:30:02;-4.10;99.90
16273;DHT22;8244;50.044;9.006;2024-01-11T23:35:04;-4.00;99.90
16273;DHT22;8244;50.044;9.006;2024-01-11T23:40:09;-3.90;99.90
16273;DHT22;8244;50.044;9.006;2024-01-11T23:45:10;-3.80;99.90
16273;DHT22;8244;50.044;9.006;2024-01-11T23:50:12;-3.70;99.90
16273;DHT22;8244;50.044;9.006;2024-01-11T23:55:15;-3.60;99.90
